• Join FlightAware (Why Join?)
  • Login
  • US Flag 
10:44AM EDT


 

Airport Tracker/Info


-or-


 

Live Flight TrackerFlight Track Log ✈ SKW6528 ✈ 19-Apr-2013 ✈ KDEN - KSGF

Flight Track Log - Related Links

Times and Time Zones

All times are in EDT time to prevent confusion due to time zone crossing. See the SKW6528 flight status page for this flight to view local times or setup timezone preferences in your user account.

Time Position Orientation Groundspeed Altitude Reporting Facility
EDT Latitude Longitude Course Direction KTS MPH feet Rate Location/Type
12:27PM 39.8708 -104.5564 116° Southeast 288 331 9,400  Level Denver Center
12:28PM 39.8344 -104.4603 116° Southeast 295 339 10,000 1,080 Climbing Denver Center
12:29PM 39.7667 -103.9985 90° East  Level FlightAware Approximate
12:29PM 39.8083 -104.3469 107° East 311 358 11,700  Level Denver Center
12:30PM 39.7500 -103.8334 90° East  Level FlightAware Approximate
12:30PM 39.7958 -104.2253 98° East 339 390 13,400  Level Denver Center
12:31PM 39.7333 -103.6674 90° East  Level FlightAware Approximate
12:31PM 39.7806 -104.0917 98° East 375 432 15,100  Level Denver Center
12:32PM 39.7177 -103.4995 99° East  Level FlightAware Approximate
12:32PM 39.7681 -103.9736 98° East 388 447 16,400  Level Denver Center
12:33PM 39.7475 -103.7950 98° East 406 467 18,400 1,800 Climbing Denver Center
12:34PM 39.7336 -103.6514 97° East 388 447 20,200 1,620 Climbing Denver Center
12:35PM 39.7211 -103.5008 96° East 411 473 21,800 1,500 Climbing Denver Center
12:36PM 39.7100 -103.3508 95° East 413 475 23,300 1,440 Climbing Denver Center
12:37PM 39.6972 -103.1989 96° East 418 481 24,800 1,200 Climbing Denver Center
12:39PM 39.6675 -103.0211 102° East 433 498 25,800 660 Climbing Denver Center
12:40PM 39.6300 -102.8342 105° East 452 520 26,400 480 Climbing Denver Center
12:41PM 39.5953 -102.6694 105° East 467 537 26,900 600 Climbing Denver Center
12:42PM 39.5608 -102.5028 105° East 475 547 27,700 720 Climbing Denver Center
12:43PM 39.5247 -102.3306 105° East 474 545 28,400 720 Climbing Denver Center
12:44PM 39.4861 -102.1461 105° East 475 547 29,300 840 Climbing Denver Center
12:45PM 39.4375 -101.9158 105° East 470 541 30,600 900 Climbing Kansas City Center
12:46PM 39.4147 -101.8106 106° East 466 536 31,200 780 Climbing Denver Center
12:47PM 39.3867 -101.6856 106° East 458 527 31,900 720 Climbing Denver Center
12:48PM 39.3442 -101.4856 105° East 454 522 32,700 480 Climbing Denver Center
12:49PM 39.3106 -101.3353 106° East 457 526 33,000 120 Climbing Denver Center
12:50PM 39.2719 -101.1550 105° East 466 536 33,000  Level Denver Center
12:51PM 39.2364 -100.9978 106° East 474 545 33,000  Level Denver Center
12:52PM 39.2008 -100.8367 106° East 484 557 33,000  Level Denver Center
12:53PM 39.1569 -100.6458 106° East 493 567 33,000  Level Denver Center
12:54PM 39.1194 -100.4814 106° East 499 574 33,000  Level Denver Center
12:55PM 39.0744 -100.2847 106° East 509 586 33,000  Level Denver Center
12:56PM 39.0361 -100.1186 106° East 509 586 33,000  Level Denver Center
12:57PM 38.9908 -99.9203 106° East 509 586 33,000  Level Denver Center
12:58PM 38.9517 -99.7533 107° East 509 586 33,000  Level Denver Center
12:59PM 38.9067 -99.5600 107° East 506 582 33,000  Level Denver Center
01:00PM 38.8669 -99.3922 107° East 510 587 33,000  Level Denver Center
01:01PM 38.8461 -99.3094 108° East 509 586 33,000  Level Kansas City Center
01:02PM 38.8047 -99.1356 107° East 508 585 33,000  Level Kansas City Center
01:03PM 38.7625 -98.9622 107° East 509 586 33,000  Level Kansas City Center
01:04PM 38.7122 -98.7556 107° East 506 582 33,000  Level Kansas City Center
01:05PM 38.6700 -98.5836 107° East 507 583 33,000  Level Kansas City Center
01:06PM 38.6269 -98.4103 108° East 509 586 33,000  Level Kansas City Center
01:07PM 38.5847 -98.2381 107° East 507 583 33,000  Level Kansas City Center
01:08PM 38.5403 -98.0653 108° East 508 585 33,000  Level Kansas City Center
01:09PM 38.4967 -97.8925 108° East 509 586 33,000  Level Kansas City Center
01:10PM 38.4522 -97.7192 108° East 510 587 33,000  Level Kansas City Center
01:11PM 38.4075 -97.5422 108° East 510 587 33,000  Level Kansas City Center
01:12PM 38.3547 -97.3383 108° East 511 588 33,000  Level Kansas City Center
01:13PM 38.3094 -97.1650 108° East 513 590 33,000  Level Kansas City Center
01:14PM 38.2642 -96.9917 108° East 514 592 33,000  Level Kansas City Center
01:15PM 38.2183 -96.8183 109° East 516 594 33,000  Level Kansas City Center
01:17PM 38.1714 -96.6447 109° East 518 596 33,000  Level Kansas City Center
01:18PM 38.1250 -96.4703 109° East 520 598 33,000  Level Kansas City Center
01:19PM 38.0786 -96.2967 109° East 520 598 33,000  Level Kansas City Center
01:20PM 38.0269 -96.1047 109° East 519 597 33,000  Level Kansas City Center
01:21PM 37.9739 -95.9114 109° East 522 601 33,000  Level Kansas City Center
01:22PM 37.9308 -95.7550 109° East 525 604 33,000  Level Kansas City Center
01:23PM 37.8725 -95.5483 110° East 521 600 33,000 -420 Level Kansas City Center
01:24PM 37.8242 -95.3772 110° East 517 595 32,200 -1,080 Descending Kansas City Center
01:25PM 37.7761 -95.2086 110° East 513 590 30,800 -1,860 Descending Kansas City Center
01:26PM 37.7292 -95.0411 109° East 511 588 28,400 -2,400 Descending Kansas City Center
01:27PM 37.6769 -94.8567 110° East 506 582 25,800 -2,100 Descending Kansas City Center
01:28PM 37.6342 -94.7083 110° East 499 574 24,100 -900 Descending Kansas City Center
01:29PM 37.5872 -94.5458 110° East 494 568 24,000 -1,680 Descending Kansas City Center
01:30PM 37.5333 -94.3586 110° East 479 551 20,700 -3,000 Descending Kansas City Center
01:31PM 37.4906 -94.2117 110° East 457 526 17,800 -2,580 Descending Kansas City Center
01:32PM 37.4533 -94.0869 111° Southeast 440 506 15,400 -2,340 Descending Kansas City Center
01:33PM 37.4081 -93.9303 110° East 409 471 13,100 -1,800 Descending Kansas City Center
01:34PM 37.3628 -93.8272 119° Southeast 349 402 11,800 -1,500 Descending Kansas City Center
01:35PM 37.3131 -93.7331 124° Southeast 328 377 10,000 -1,740 Descending Kansas City Center
01:36PM 37.2631 -93.6392 124° Southeast 324 373 8,300 -1,680 Descending Kansas City Center
01:37PM 37.2131 -93.5475 124° Southeast 321 369 6,600 -1,620 Descending Kansas City Center
01:38PM 37.1664 -93.4631 125° Southeast 313 360 5,000 -1,620 Descending Kansas City Center